createdAt,value
2024-02-20T00:00:49.896Z,6.05
2024-02-20T00:03:17.679Z,6.32
2024-02-20T00:05:45.077Z,5.75
2024-02-20T00:08:12.544Z,6.20
2024-02-20T00:10:40.189Z,5.60
2024-02-20T00:13:07.737Z,5.57
2024-02-20T00:15:35.830Z,5.47
2024-02-20T00:18:04.961Z,5.03
2024-02-20T00:20:32.515Z,5.45
2024-02-20T00:22:59.985Z,5.22
2024-02-20T00:25:27.694Z,5.12
2024-02-20T00:27:55.207Z,4.87
2024-02-20T00:30:22.732Z,5.07
2024-02-20T00:32:51.809Z,5.57
2024-02-20T00:35:19.418Z,5.10
2024-02-20T00:37:47.003Z,5.43
2024-02-20T00:40:14.808Z,4.93
2024-02-20T00:42:43.121Z,5.55
2024-02-20T00:45:10.668Z,5.57
2024-02-20T00:47:38.369Z,5.00
2024-02-20T00:50:06.684Z,5.87
2024-02-20T00:52:34.251Z,5.15
2024-02-20T00:55:02.141Z,7.12
2024-02-20T00:57:29.568Z,5.07
2024-02-20T00:59:57.001Z,4.65
2024-02-20T01:02:24.710Z,4.65
2024-02-20T01:04:52.663Z,5.12
2024-02-20T01:07:20.851Z,4.12
2024-02-20T01:09:48.695Z,4.80
2024-02-20T01:12:16.166Z,4.07
2024-02-20T01:14:45.497Z,4.28
2024-02-20T01:17:13.239Z,4.68
2024-02-20T01:19:40.673Z,4.62
2024-02-20T01:22:08.211Z,4.87
2024-02-20T01:24:35.977Z,3.87
2024-02-20T01:27:04.368Z,5.50
2024-02-20T01:29:32.469Z,4.72
2024-02-20T01:32:00.155Z,4.65
2024-02-20T01:34:27.812Z,4.72
2024-02-20T01:36:55.905Z,4.05
2024-02-20T01:39:23.693Z,4.00
2024-02-20T01:41:51.134Z,4.53
2024-02-20T01:44:18.638Z,4.15
2024-02-20T01:46:46.938Z,3.62
2024-02-20T01:49:14.689Z,3.65
2024-02-20T01:51:42.194Z,3.55
2024-02-20T01:54:09.899Z,4.35
2024-02-20T01:56:37.316Z,3.90
2024-02-20T01:59:05.542Z,3.55
2024-02-20T02:01:33.218Z,3.75
2024-02-20T02:04:01.664Z,4.03
2024-02-20T02:06:30.084Z,5.80
2024-02-20T02:08:57.776Z,4.72
2024-02-20T02:11:25.644Z,4.37
2024-02-20T02:13:53.361Z,4.72
2024-02-20T02:16:20.973Z,4.78
2024-02-20T02:18:50.190Z,3.70
2024-02-20T02:21:17.703Z,3.92
2024-02-20T02:23:45.191Z,4.43
2024-02-20T02:26:12.916Z,3.70
2024-02-20T02:28:40.479Z,3.90
2024-02-20T02:31:07.981Z,4.93
2024-02-20T02:33:35.786Z,3.75
2024-02-20T02:36:03.394Z,3.55
2024-02-20T02:38:31.208Z,3.70
2024-02-20T02:41:00.627Z,3.90
2024-02-20T02:43:28.080Z,3.60
2024-02-20T02:45:55.551Z,3.70
2024-02-20T02:48:23.402Z,3.20
2024-02-20T02:50:50.916Z,3.22
2024-02-20T02:53:18.368Z,3.40
2024-02-20T02:55:46.061Z,3.62
2024-02-20T02:58:13.633Z,3.58
2024-02-20T03:00:41.673Z,3.10
2024-02-20T03:03:09.610Z,3.20
2024-02-20T03:05:39.296Z,2.87
2024-02-20T03:08:07.392Z,3.40
2024-02-20T03:10:35.229Z,3.20
2024-02-20T03:13:02.787Z,2.75
2024-02-20T03:15:30.655Z,3.15
2024-02-20T03:17:58.390Z,3.60
2024-02-20T03:20:25.981Z,3.95
2024-02-20T03:22:54.808Z,3.22
2024-02-20T03:25:22.566Z,3.70
2024-02-20T03:27:51.350Z,2.95
2024-02-20T03:30:20.126Z,2.95
2024-02-20T03:32:47.879Z,3.42
2024-02-20T03:35:22.841Z,3.37
2024-02-20T03:37:50.754Z,3.17
2024-02-20T03:40:18.285Z,3.65
2024-02-20T03:42:46.099Z,3.55
2024-02-20T03:45:13.751Z,4.68
2024-02-20T03:47:41.373Z,4.82
2024-02-20T03:50:09.696Z,4.72
2024-02-20T03:52:37.465Z,4.30
2024-02-20T03:55:05.341Z,4.18
2024-02-20T03:57:32.904Z,2.67
2024-02-20T04:00:03.365Z,3.72
2024-02-20T04:02:32.061Z,3.00
2024-02-20T04:04:59.880Z,4.05
2024-02-20T04:07:27.471Z,3.65
2024-02-20T04:09:55.023Z,3.28
2024-02-20T04:12:22.738Z,2.97
2024-02-20T04:14:50.174Z,2.83
2024-02-20T04:17:17.607Z,3.37
2024-02-20T04:19:45.334Z,2.85
2024-02-20T04:22:12.924Z,3.00
2024-02-20T04:24:40.624Z,3.10
2024-02-20T04:27:08.299Z,2.90
2024-02-20T04:29:35.716Z,2.87
2024-02-20T04:32:03.269Z,2.65
2024-02-20T04:34:31.038Z,2.90
2024-02-20T04:36:58.480Z,3.17
2024-02-20T04:39:25.883Z,2.80
2024-02-20T04:41:53.556Z,3.37
2024-02-20T04:44:20.970Z,2.70
2024-02-20T04:46:48.533Z,3.72
2024-02-20T04:49:16.363Z,5.53
2024-02-20T04:51:43.975Z,6.07
2024-02-20T04:54:11.428Z,8.25
2024-02-20T04:56:39.152Z,10.10
2024-02-20T04:59:06.626Z,6.95
2024-02-20T05:01:34.327Z,13.75
2024-02-20T05:04:02.325Z,14.15
2024-02-20T05:06:29.871Z,9.77
2024-02-20T05:08:57.395Z,9.02
2024-02-20T05:11:25.087Z,11.57
2024-02-20T05:13:52.553Z,11.07
2024-02-20T05:16:19.952Z,11.07
2024-02-20T05:18:48.048Z,11.07
2024-02-20T05:21:15.516Z,13.10
2024-02-20T05:23:42.996Z,8.20
2024-02-20T05:26:10.634Z,8.02
2024-02-20T05:28:38.109Z,8.48
2024-02-20T05:31:21.737Z,8.20
2024-02-20T05:33:49.648Z,7.22
2024-02-20T05:36:17.162Z,5.62
2024-02-20T05:38:44.573Z,5.45
2024-02-20T05:41:12.344Z,7.05
2024-02-20T05:43:39.790Z,6.00
2024-02-20T05:46:07.280Z,6.37
2024-02-20T05:48:35.090Z,6.68
2024-02-20T05:51:02.608Z,6.62
2024-02-20T05:53:30.579Z,3.70
2024-02-20T05:55:58.270Z,3.62
2024-02-20T05:58:25.701Z,3.60
2024-02-20T06:00:53.466Z,3.40
2024-02-20T06:03:21.137Z,3.35
2024-02-20T06:05:49.761Z,3.45
2024-02-20T06:08:17.190Z,3.50
2024-02-20T06:10:45.141Z,3.72
2024-02-20T06:13:12.684Z,4.62
2024-02-20T06:15:40.153Z,3.35
2024-02-20T06:18:08.078Z,5.00
2024-02-20T06:20:37.679Z,4.05
2024-02-20T06:23:06.252Z,3.67
2024-02-20T06:25:34.010Z,4.10
2024-02-20T06:28:02.144Z,4.18
2024-02-20T06:30:29.939Z,3.83
2024-02-20T06:32:57.771Z,3.60
2024-02-20T06:35:25.401Z,3.75
2024-02-20T06:37:52.891Z,3.47
2024-02-20T06:40:20.636Z,3.20
2024-02-20T06:42:48.096Z,3.20
2024-02-20T06:45:16.170Z,3.80
2024-02-20T06:47:44.021Z,3.45
2024-02-20T06:50:13.876Z,3.87
2024-02-20T06:52:41.713Z,3.78
2024-02-20T06:55:09.796Z,3.12
2024-02-20T06:57:40.756Z,3.53
2024-02-20T07:00:12.985Z,3.08
2024-02-20T07:02:44.205Z,3.78
2024-02-20T07:05:13.096Z,2.95
2024-02-20T07:07:41.052Z,3.08
2024-02-20T07:10:09.603Z,2.80
2024-02-20T07:12:37.257Z,3.25
2024-02-20T07:15:07.887Z,3.58
2024-02-20T07:17:35.762Z,3.20
2024-02-20T07:20:04.519Z,3.67
2024-02-20T07:22:34.013Z,4.18
2024-02-20T07:25:01.764Z,3.37
2024-02-20T07:27:29.296Z,3.72
2024-02-20T07:29:57.128Z,3.62
2024-02-20T07:32:24.553Z,3.87
2024-02-20T07:34:52.183Z,3.97
2024-02-20T07:37:20.157Z,4.03
2024-02-20T07:39:47.638Z,3.72
2024-02-20T07:42:15.120Z,3.72
2024-02-20T07:44:42.785Z,3.95
2024-02-20T07:47:10.212Z,3.92
2024-02-20T07:49:37.909Z,3.10
2024-02-20T07:52:06.564Z,3.70
2024-02-20T07:54:34.177Z,3.58
2024-02-20T07:57:02.642Z,3.33
2024-02-20T07:59:30.391Z,3.20
2024-02-20T08:01:58.728Z,3.10
2024-02-20T08:04:26.775Z,3.15
2024-02-20T08:06:55.603Z,3.65
2024-02-20T08:09:23.235Z,3.55
2024-02-20T08:11:52.094Z,3.30
2024-02-20T08:14:20.778Z,3.65
2024-02-20T08:16:51.024Z,3.10
2024-02-20T08:19:18.882Z,3.65
2024-02-20T08:21:46.432Z,3.85
2024-02-20T08:24:13.879Z,3.28
2024-02-20T08:26:41.611Z,3.50
2024-02-20T08:29:09.693Z,3.97
2024-02-20T08:31:37.371Z,3.40
2024-02-20T08:34:07.285Z,7.47
2024-02-20T08:36:39.014Z,18.10
2024-02-20T08:39:07.156Z,12.13
2024-02-20T08:41:35.174Z,6.18
2024-02-20T08:44:02.679Z,11.30
2024-02-20T08:46:32.483Z,7.82
2024-02-20T08:49:00.193Z,4.12
2024-02-20T08:51:28.031Z,9.68
2024-02-20T08:53:55.922Z,8.20
2024-02-20T08:56:23.581Z,6.68
2024-02-20T08:58:52.795Z,5.22
2024-02-20T09:01:20.697Z,5.97
2024-02-20T09:03:48.418Z,5.03
2024-02-20T09:06:15.894Z,5.20
2024-02-20T09:08:43.635Z,4.40
2024-02-20T09:11:11.351Z,4.37
2024-02-20T09:13:39.565Z,4.97
2024-02-20T09:16:07.446Z,4.78
2024-02-20T09:18:35.895Z,4.45
2024-02-20T09:21:08.258Z,4.50
2024-02-20T09:23:39.492Z,4.47
2024-02-20T09:26:07.728Z,4.87
2024-02-20T09:28:35.516Z,4.57
2024-02-20T09:31:03.447Z,5.05
2024-02-20T09:33:31.293Z,5.90
2024-02-20T09:35:58.979Z,4.85
2024-02-20T09:38:26.987Z,5.32
2024-02-20T09:40:57.109Z,4.82
2024-02-20T09:43:26.880Z,5.00
2024-02-20T09:45:54.642Z,5.10
2024-02-20T09:48:22.209Z,5.00
2024-02-20T09:50:49.838Z,4.85
2024-02-20T09:53:20.694Z,5.15
2024-02-20T09:55:51.272Z,4.75
2024-02-20T09:58:19.169Z,5.07
2024-02-20T10:00:46.725Z,4.60
2024-02-20T10:03:14.734Z,4.72
2024-02-20T10:05:48.466Z,4.60
2024-02-20T10:08:16.357Z,4.68
2024-02-20T10:10:46.102Z,4.75
2024-02-20T10:13:13.951Z,4.15
2024-02-20T10:15:41.700Z,4.30
2024-02-20T10:18:09.345Z,4.30
2024-02-20T10:20:37.138Z,4.62
2024-02-20T10:23:09.450Z,4.60
2024-02-20T10:25:37.491Z,4.07
2024-02-20T10:28:06.969Z,4.22
2024-02-20T10:30:34.833Z,4.20
2024-02-20T10:33:02.504Z,4.35
2024-02-20T10:35:30.377Z,4.47
2024-02-20T10:38:04.503Z,4.35
2024-02-20T10:40:33.059Z,4.12
2024-02-20T10:43:02.044Z,4.12
2024-02-20T10:45:30.181Z,3.75
2024-02-20T10:48:00.319Z,4.07
2024-02-20T10:50:28.958Z,4.20
2024-02-20T10:52:56.800Z,4.93
2024-02-20T10:55:32.169Z,4.68
2024-02-20T10:58:04.539Z,4.37
2024-02-20T11:00:36.292Z,4.78
2024-02-20T11:03:06.054Z,4.62
2024-02-20T11:05:34.404Z,4.53
2024-02-20T11:08:07.072Z,4.30
2024-02-20T11:10:36.914Z,4.62
2024-02-20T11:13:26.105Z,5.18
2024-02-20T11:15:54.499Z,5.05
2024-02-20T11:18:22.970Z,4.80
2024-02-20T11:21:03.697Z,4.80
2024-02-20T11:23:32.257Z,4.15
2024-02-20T11:26:10.115Z,4.90
2024-02-20T11:28:38.446Z,5.05
2024-02-20T11:31:06.767Z,5.95
2024-02-20T11:33:34.934Z,4.78
2024-02-20T11:36:03.439Z,5.35
2024-02-20T11:38:31.459Z,5.28
2024-02-20T11:40:59.030Z,5.70
2024-02-20T11:43:30.082Z,5.32
2024-02-20T11:46:01.400Z,5.20
2024-02-20T11:48:30.112Z,5.68
2024-02-20T11:50:58.759Z,6.00
2024-02-20T11:53:26.963Z,5.28
2024-02-20T11:55:55.359Z,5.60
2024-02-20T11:58:26.971Z,4.75
2024-02-20T12:01:09.423Z,5.43
2024-02-20T12:03:38.354Z,6.32
2024-02-20T12:06:10.405Z,5.25
2024-02-20T12:08:45.083Z,5.30
2024-02-20T12:11:15.399Z,6.07
2024-02-20T12:13:43.404Z,7.20
2024-02-20T12:16:26.499Z,6.20
2024-02-20T12:18:55.048Z,5.07
2024-02-20T12:21:34.972Z,6.28
2024-02-20T12:24:08.635Z,5.37
2024-02-20T12:26:36.297Z,5.45
2024-02-20T12:29:04.026Z,5.07
2024-02-20T12:31:33.798Z,7.03
2024-02-20T12:34:04.015Z,5.93
2024-02-20T12:36:32.833Z,6.05
2024-02-20T12:39:02.328Z,5.60
2024-02-20T12:41:31.048Z,6.28
2024-02-20T12:43:58.955Z,6.40
2024-02-20T12:46:26.594Z,5.72
2024-02-20T12:48:55.282Z,6.60
2024-02-20T12:51:24.881Z,5.22
2024-02-20T12:53:52.482Z,5.60
2024-02-20T12:56:20.016Z,6.22
2024-02-20T12:58:48.163Z,5.87
2024-02-20T13:01:16.441Z,5.25
2024-02-20T13:03:44.417Z,5.97
2024-02-20T13:06:12.253Z,5.57
2024-02-20T13:08:39.964Z,5.62
2024-02-20T13:11:08.155Z,5.25
2024-02-20T13:13:36.248Z,5.50
2024-02-20T13:16:04.543Z,6.18
2024-02-20T13:18:32.141Z,5.90
2024-02-20T13:21:03.565Z,5.87
2024-02-20T13:23:31.138Z,5.72
2024-02-20T13:25:58.733Z,4.97
2024-02-20T13:28:28.109Z,5.62
2024-02-20T13:30:55.652Z,5.10
2024-02-20T13:33:23.220Z,5.10
2024-02-20T13:35:50.999Z,5.47
2024-02-20T13:38:18.538Z,5.82
2024-02-20T13:40:46.517Z,7.15
2024-02-20T13:43:14.329Z,7.62
2024-02-20T13:45:48.783Z,9.20
2024-02-20T13:48:18.446Z,10.37
2024-02-20T13:50:48.250Z,8.45
2024-02-20T13:53:16.240Z,8.38
2024-02-20T13:55:48.660Z,6.82
2024-02-20T13:58:17.089Z,6.15
2024-02-20T14:00:45.242Z,5.87
2024-02-20T14:03:13.412Z,6.75
2024-02-20T14:05:42.769Z,6.70
2024-02-20T14:08:13.332Z,6.43
2024-02-20T14:10:41.337Z,6.22
2024-02-20T14:13:09.895Z,5.68
2024-02-20T14:15:37.597Z,6.40
2024-02-20T14:18:05.819Z,7.05
2024-02-20T14:20:35.899Z,6.37
2024-02-20T14:23:05.638Z,5.85
2024-02-20T14:25:34.766Z,6.03
2024-02-20T14:28:02.403Z,5.65
2024-02-20T14:30:32.709Z,5.35
2024-02-20T14:33:05.030Z,6.15
2024-02-20T14:35:32.681Z,6.25
2024-02-20T14:38:00.566Z,6.57
2024-02-20T14:40:28.384Z,5.78
2024-02-20T14:42:55.827Z,6.35
2024-02-20T14:45:23.833Z,6.20
2024-02-20T14:47:51.977Z,6.47
2024-02-20T14:50:20.350Z,6.55
2024-02-20T14:52:48.069Z,6.30
2024-02-20T14:55:15.924Z,6.00
2024-02-20T14:57:48.676Z,7.28
2024-02-20T15:00:17.516Z,8.13
2024-02-20T15:02:45.166Z,7.28
2024-02-20T15:05:13.705Z,8.10
2024-02-20T15:07:41.788Z,8.35
2024-02-20T15:10:16.557Z,7.65
2024-02-20T15:12:44.378Z,7.57
2024-02-20T15:15:13.198Z,8.23
2024-02-20T15:17:42.518Z,9.40
2024-02-20T15:20:11.864Z,9.52
2024-02-20T15:22:39.432Z,9.32
2024-02-20T15:25:19.860Z,8.30
2024-02-20T15:27:50.432Z,8.05
2024-02-20T15:30:18.713Z,8.35
2024-02-20T15:32:47.350Z,9.52
2024-02-20T15:35:15.891Z,11.30
2024-02-20T15:37:46.807Z,10.43
2024-02-20T15:40:15.197Z,10.38
2024-02-20T15:42:45.486Z,11.18
2024-02-20T15:45:13.139Z,9.20
2024-02-20T15:47:41.723Z,10.13
2024-02-20T15:50:10.522Z,8.82
2024-02-20T15:52:39.264Z,9.15
2024-02-20T15:55:07.702Z,10.10
2024-02-20T15:57:35.418Z,14.27
2024-02-20T16:00:03.027Z,9.65
2024-02-20T16:02:39.972Z,8.20
2024-02-20T16:05:08.350Z,7.80
2024-02-20T16:07:35.952Z,7.35
2024-02-20T16:10:03.519Z,8.45
2024-02-20T16:12:31.474Z,9.93
2024-02-20T16:15:01.249Z,11.05
2024-02-20T16:17:30.728Z,10.60
2024-02-20T16:19:58.522Z,15.18
2024-02-20T16:22:26.017Z,10.68
2024-02-20T16:24:53.575Z,12.52
2024-02-20T16:27:22.067Z,11.65
2024-02-20T16:29:57.008Z,10.55
2024-02-20T16:32:25.796Z,10.18
2024-02-20T16:34:53.780Z,9.48
2024-02-20T16:37:23.273Z,9.52
2024-02-20T16:39:55.002Z,7.68
2024-02-20T16:42:22.556Z,8.13
2024-02-20T16:44:50.063Z,9.02
2024-02-20T16:47:17.770Z,9.20
2024-02-20T16:49:45.237Z,7.85
2024-02-20T16:52:12.894Z,9.25
2024-02-20T16:54:40.615Z,9.85
2024-02-20T16:57:13.443Z,8.60
2024-02-20T16:59:41.621Z,9.25
2024-02-20T17:02:09.142Z,8.45
2024-02-20T17:04:37.346Z,8.48
2024-02-20T17:07:05.176Z,8.88
2024-02-20T17:09:33.195Z,7.53
2024-02-20T17:12:00.788Z,9.05
2024-02-20T17:14:28.566Z,9.15
2024-02-20T17:16:56.334Z,7.85
2024-02-20T17:19:23.928Z,8.25
2024-02-20T17:21:51.733Z,9.13
2024-02-20T17:24:19.141Z,10.27
2024-02-20T17:26:50.063Z,12.50
2024-02-20T17:29:17.912Z,11.95
2024-02-20T17:31:45.713Z,10.68
2024-02-20T17:34:13.251Z,9.98
2024-02-20T17:36:41.138Z,10.77
2024-02-20T17:39:09.971Z,11.50
2024-02-20T17:41:38.452Z,10.45
2024-02-20T17:44:09.260Z,11.35
2024-02-20T17:46:36.915Z,10.40
2024-02-20T17:49:06.718Z,16.48
2024-02-20T17:51:37.175Z,27.58
2024-02-20T17:54:07.421Z,17.58
2024-02-20T17:56:36.848Z,15.60
2024-02-20T17:59:05.043Z,13.35
2024-02-20T18:01:35.805Z,12.48
2024-02-20T18:04:03.645Z,10.10
2024-02-20T18:06:31.117Z,11.12
2024-02-20T18:08:58.578Z,11.43
2024-02-20T18:11:28.992Z,10.80
2024-02-20T18:13:56.920Z,9.65
2024-02-20T18:16:24.443Z,10.32
2024-02-20T18:18:52.258Z,10.50
2024-02-20T18:21:19.727Z,10.90
2024-02-20T18:23:47.182Z,10.30
2024-02-20T18:26:14.907Z,10.93
2024-02-20T18:28:42.970Z,9.98
2024-02-20T18:31:10.575Z,9.45
2024-02-20T18:33:38.306Z,14.63
2024-02-20T18:36:08.398Z,14.07
2024-02-20T18:38:35.878Z,19.45
2024-02-20T18:41:04.094Z,25.02
2024-02-20T18:43:31.917Z,19.35
2024-02-20T18:45:59.429Z,18.98
2024-02-20T18:48:30.218Z,14.82
2024-02-20T18:50:58.684Z,10.40
2024-02-20T18:53:26.182Z,10.77
2024-02-20T18:55:54.868Z,8.43
2024-02-20T18:58:23.972Z,8.68
2024-02-20T19:00:54.353Z,6.47
2024-02-20T19:03:22.194Z,17.27
2024-02-20T19:05:50.727Z,6.25
2024-02-20T19:08:19.083Z,4.62
2024-02-20T19:10:46.876Z,4.60
2024-02-20T19:13:14.424Z,4.62
2024-02-20T19:15:41.946Z,5.12
2024-02-20T19:18:09.803Z,3.65
2024-02-20T19:20:38.291Z,2.83
2024-02-20T19:23:05.864Z,3.58
2024-02-20T19:25:34.019Z,2.90
2024-02-20T19:28:01.730Z,3.33
2024-02-20T19:30:30.104Z,3.10
2024-02-20T19:32:58.102Z,3.15
2024-02-20T19:35:25.924Z,3.30
2024-02-20T19:37:53.521Z,3.15
2024-02-20T19:40:21.393Z,3.75
2024-02-20T19:42:48.899Z,3.45
2024-02-20T19:45:16.417Z,3.22
2024-02-20T19:47:45.502Z,3.60
2024-02-20T19:50:12.974Z,3.75
2024-02-20T19:52:40.587Z,3.70
2024-02-20T19:55:08.942Z,3.25
2024-02-20T19:57:36.460Z,4.20
2024-02-20T20:00:05.217Z,3.62
2024-02-20T20:02:35.583Z,3.87
2024-02-20T20:05:03.659Z,4.30
2024-02-20T20:07:31.319Z,3.87
2024-02-20T20:09:59.057Z,3.20
2024-02-20T20:12:26.484Z,3.72
2024-02-20T20:14:55.741Z,4.15
2024-02-20T20:17:25.651Z,3.65
2024-02-20T20:19:53.241Z,3.67
2024-02-20T20:22:20.905Z,3.35
2024-02-20T20:24:48.667Z,3.95
2024-02-20T20:27:16.457Z,4.03
2024-02-20T20:29:44.149Z,5.22
2024-02-20T20:32:13.892Z,3.83
2024-02-20T20:34:42.729Z,3.87
2024-02-20T20:37:10.214Z,5.78
2024-02-20T20:39:39.224Z,4.65
2024-02-20T20:42:06.972Z,4.10
2024-02-20T20:44:38.164Z,4.70
2024-02-20T20:47:05.993Z,4.80
2024-02-20T20:49:33.630Z,4.87
2024-02-20T20:52:01.168Z,4.90
2024-02-20T20:54:29.052Z,4.05
2024-02-20T20:56:56.582Z,4.20
2024-02-20T20:59:27.192Z,4.40
2024-02-20T21:01:56.114Z,3.60
2024-02-20T21:04:23.845Z,4.53
2024-02-20T21:06:51.421Z,4.60
2024-02-20T21:09:19.199Z,3.78
2024-02-20T21:11:46.703Z,3.95
2024-02-20T21:14:14.243Z,4.12
2024-02-20T21:16:42.013Z,3.75
2024-02-20T21:19:09.503Z,3.25
2024-02-20T21:21:41.696Z,3.70
2024-02-20T21:24:11.400Z,3.65
2024-02-20T21:26:42.069Z,3.95
2024-02-20T21:29:13.268Z,3.72
2024-02-20T21:31:41.021Z,3.83
2024-02-20T21:34:09.110Z,4.18
2024-02-20T21:36:38.276Z,4.00
2024-02-20T21:39:06.003Z,4.43
2024-02-20T21:41:33.783Z,3.92
2024-02-20T21:44:01.578Z,3.67
2024-02-20T21:46:29.012Z,3.58
2024-02-20T21:48:56.522Z,3.70
2024-02-20T21:51:24.338Z,4.40
2024-02-20T21:53:52.053Z,3.90
2024-02-20T21:56:20.021Z,3.62
2024-02-20T21:58:47.836Z,4.28
2024-02-20T22:01:15.429Z,4.47
2024-02-20T22:03:43.214Z,4.28
2024-02-20T22:06:10.631Z,4.28
2024-02-20T22:08:38.631Z,4.25
2024-02-20T22:11:06.496Z,4.28
2024-02-20T22:13:33.986Z,3.92
2024-02-20T22:16:01.525Z,3.87
2024-02-20T22:18:29.306Z,4.45
2024-02-20T22:20:57.093Z,4.43
2024-02-20T22:23:24.552Z,4.30
2024-02-20T22:25:52.448Z,4.32
2024-02-20T22:28:20.006Z,4.12
2024-02-20T22:30:47.489Z,4.55
2024-02-20T22:33:15.264Z,3.95
2024-02-20T22:35:42.761Z,4.00
2024-02-20T22:38:10.134Z,4.37
2024-02-20T22:40:37.886Z,4.12
2024-02-20T22:43:05.456Z,3.80
2024-02-20T22:45:33.049Z,4.40
2024-02-20T22:48:00.830Z,3.80
2024-02-20T22:50:28.399Z,4.75
2024-02-20T22:52:55.928Z,5.62
2024-02-20T22:55:24.104Z,4.00
2024-02-20T22:57:51.652Z,4.50
2024-02-20T23:00:19.482Z,5.15
2024-02-20T23:02:47.249Z,4.75
2024-02-20T23:05:14.978Z,4.80
2024-02-20T23:07:42.607Z,4.18
2024-02-20T23:10:10.545Z,4.30
2024-02-20T23:12:38.004Z,4.80
2024-02-20T23:15:06.036Z,4.78
2024-02-20T23:17:33.746Z,4.43
2024-02-20T23:20:01.223Z,3.87
2024-02-20T23:22:28.641Z,4.22
2024-02-20T23:24:56.357Z,5.18
2024-02-20T23:27:23.958Z,4.80
2024-02-20T23:29:51.448Z,4.28
2024-02-20T23:32:19.120Z,4.03
2024-02-20T23:34:46.584Z,4.80
2024-02-20T23:37:14.033Z,4.50
2024-02-20T23:39:41.778Z,4.00
2024-02-20T23:42:11.462Z,3.92
2024-02-20T23:44:38.994Z,3.67
2024-02-20T23:47:07.398Z,3.45
2024-02-20T23:49:34.941Z,4.53
2024-02-20T23:52:02.541Z,3.78
2024-02-20T23:54:30.718Z,3.67
2024-02-20T23:56:59.800Z,3.70
2024-02-20T23:59:27.286Z,4.35
